Time;durP1;ratioP1;P1;durP2;ratioP2;P2;SDS_P1;SDS_P2;PMS_P1;PMS_P2;Temp;Humidity;BMP_temperature;BMP_pressure;BME280_temperature;BME280_humidity;BME280_pressure;Samples;Min_cycle;Max_cycle;Signal;HPM_P1;HPM_P2
2022/09/22 00:02:05;;;;;;;9.63;5.35;;;;;;;;;;6157126;23;20026;-71
2022/09/22 00:04:32;;;;;;;12.57;6.25;;;;;;;;;;6158599;23;20049;-70
2022/09/22 00:06:58;;;;;;;10.00;5.82;;;;;;;;;;6159188;23;20539;-70
2022/09/22 00:09:25;;;;;;;9.15;5.50;;;;;;;;;;6158910;23;20030;-69
2022/09/22 00:11:52;;;;;;;9.77;5.15;;;;;;;;;;6158234;23;20039;-70
2022/09/22 00:14:20;;;;;;;7.78;5.28;;;;;;;;;;6157937;23;20085;-70
2022/09/22 00:16:55;;;;;;;6.03;4.10;;;;;;;;;;6158067;23;20085;-70
2022/09/22 00:19:22;;;;;;;5.70;3.72;;;;;;;;;;6158225;23;20030;-70
2022/09/22 00:21:48;;;;;;;8.18;4.35;;;;;;;;;;6158530;23;20468;-70
2022/09/22 00:24:16;;;;;;;7.95;4.30;;;;;;;;;;6158044;23;20025;-70
2022/09/22 00:26:42;;;;;;;5.32;3.75;;;;;;;;;;6158074;23;20034;-70
2022/09/22 00:29:09;;;;;;;6.53;3.83;;;;;;;;;;6158530;23;20030;-70
2022/09/22 00:31:37;;;;;;;6.40;4.28;;;;;;;;;;6158224;23;20025;-70
2022/09/22 00:34:04;;;;;;;8.35;4.60;;;;;;;;;;6156837;23;20034;-70
2022/09/22 00:36:30;;;;;;;6.47;4.40;;;;;;;;;;6157335;23;20030;-70
2022/09/22 00:38:57;;;;;;;11.25;3.88;;;;;;;;;;6158180;23;20034;-70
2022/09/22 00:41:26;;;;;;;7.95;4.60;;;;;;;;;;6158770;23;20032;-70
2022/09/22 00:44:11;;;;;;;6.97;4.57;;;;;;;;;;6158468;23;20026;-70
2022/09/22 00:46:39;;;;;;;6.03;4.73;;;;;;;;;;6157836;23;20089;-70
2022/09/22 00:49:06;;;;;;;9.88;4.25;;;;;;;;;;6157927;23;20025;-70
2022/09/22 00:51:35;;;;;;;7.80;4.07;;;;;;;;;;6158155;23;20030;-70
2022/09/22 00:54:03;;;;;;;7.35;4.50;;;;;;;;;;6158181;23;20029;-70
2022/09/22 00:56:37;;;;;;;11.50;4.43;;;;;;;;;;6158404;23;20466;-70
2022/09/22 00:59:08;;;;;;;7.40;4.30;;;;;;;;;;6158031;23;20555;-70
2022/09/22 01:01:35;;;;;;;6.93;3.42;;;;;;;;;;6157907;23;20038;-70
2022/09/22 01:04:02;;;;;;;6.22;3.75;;;;;;;;;;6158977;23;20021;-70
2022/09/22 01:06:28;;;;;;;9.95;4.20;;;;;;;;;;6158849;23;20030;-70
2022/09/22 01:08:55;;;;;;;11.90;4.05;;;;;;;;;;6158477;23;20030;-70
2022/09/22 01:11:22;;;;;;;10.43;4.53;;;;;;;;;;6158338;23;20077;-70
2022/09/22 01:13:51;;;;;;;9.18;4.60;;;;;;;;;;6157373;23;20034;-70
2022/09/22 01:16:21;;;;;;;8.07;4.38;;;;;;;;;;6158316;23;20058;-70
2022/09/22 01:19:20;;;;;;;9.23;4.20;;;;;;;;;;6157764;23;20081;-70
2022/09/22 01:21:46;;;;;;;6.50;4.68;;;;;;;;;;6158364;23;20036;-70
2022/09/22 01:24:27;;;;;;;6.93;4.43;;;;;;;;;;6158507;23;20026;-70
2022/09/22 01:27:12;;;;;;;8.68;4.50;;;;;;;;;;6159006;23;20105;-70
2022/09/22 01:29:45;;;;;;;7.60;4.32;;;;;;;;;;6158460;23;20030;-70
2022/09/22 01:32:17;;;;;;;7.38;4.72;;;;;;;;;;6158087;23;20025;-70
2022/09/22 01:34:48;;;;;;;9.15;4.40;;;;;;;;;;6157738;23;20536;-70
2022/09/22 01:37:23;;;;;;;9.50;4.43;;;;;;;;;;6157588;23;20077;-70
2022/09/22 01:40:05;;;;;;;13.18;4.88;;;;;;;;;;6157623;23;20037;-70
2022/09/22 01:42:36;;;;;;;6.68;4.30;;;;;;;;;;6157658;23;20026;-70
2022/09/22 01:45:05;;;;;;;13.05;4.55;;;;;;;;;;6158267;23;20062;-70
2022/09/22 01:47:31;;;;;;;7.88;4.90;;;;;;;;;;6158362;23;20081;-70
2022/09/22 01:50:02;;;;;;;8.82;3.78;;;;;;;;;;6161553;23;20026;-70
2022/09/22 01:52:30;;;;;;;16.63;4.10;;;;;;;;;;6161240;23;20081;-70
2022/09/22 01:55:03;;;;;;;6.05;3.53;;;;;;;;;;6160833;23;20101;-70
2022/09/22 01:57:44;;;;;;;8.45;3.95;;;;;;;;;;6160731;23;20030;-70
2022/09/22 02:00:11;;;;;;;6.85;3.40;;;;;;;;;;6160843;23;20096;-70
2022/09/22 02:02:48;;;;;;;7.45;4.05;;;;;;;;;;6158053;23;20037;-70
2022/09/22 02:05:27;;;;;;;9.50;4.78;;;;;;;;;;6160226;23;20081;-70
2022/09/22 02:07:54;;;;;;;7.90;3.50;;;;;;;;;;6160680;23;20029;-70
2022/09/22 02:10:23;;;;;;;5.22;3.72;;;;;;;;;;6160976;23;20034;-70
2022/09/22 02:12:51;;;;;;;7.50;4.20;;;;;;;;;;6160991;23;20448;-70
2022/09/22 02:18:05;;;;;;;10.18;3.90;;;;;;;;;;6160757;23;20032;-70
2022/09/22 02:20:32;;;;;;;5.10;3.70;;;;;;;;;;6160890;23;20030;-70
2022/09/22 02:22:58;;;;;;;5.68;3.78;;;;;;;;;;6161262;23;20069;-70
2022/09/22 02:25:25;;;;;;;6.53;3.65;;;;;;;;;;6160688;23;20077;-70
2022/09/22 02:27:52;;;;;;;11.95;4.18;;;;;;;;;;6160167;23;20029;-70
2022/09/22 02:30:18;;;;;;;6.13;4.18;;;;;;;;;;6160736;23;20069;-70
2022/09/22 02:32:47;;;;;;;7.10;4.13;;;;;;;;;;6159617;23;20081;-70
2022/09/22 02:35:13;;;;;;;8.02;4.30;;;;;;;;;;6160565;23;20029;-70
2022/09/22 02:37:59;;;;;;;8.13;3.72;;;;;;;;;;6160629;23;20460;-70
2022/09/22 02:40:25;;;;;;;3.47;3.07;;;;;;;;;;6160870;23;20511;-70
2022/09/22 02:43:05;;;;;;;6.25;3.05;;;;;;;;;;6160564;23;20244;-70
2022/09/22 02:45:36;;;;;;;7.53;3.40;;;;;;;;;;6160693;23;20092;-70
2022/09/22 02:48:10;;;;;;;5.88;3.83;;;;;;;;;;6160807;23;20097;-70
2022/09/22 02:50:37;;;;;;;6.30;3.63;;;;;;;;;;6160358;23;20029;-70
2022/09/22 02:53:09;;;;;;;6.18;4.05;;;;;;;;;;6160443;23;20085;-70
2022/09/22 02:55:36;;;;;;;5.55;3.38;;;;;;;;;;6160538;23;20038;-70
2022/09/22 02:58:02;;;;;;;6.28;3.60;;;;;;;;;;6160736;23;20030;-70
2022/09/22 03:00:28;;;;;;;6.47;3.30;;;;;;;;;;6158682;23;20030;-70
2022/09/22 03:02:54;;;;;;;4.10;3.05;;;;;;;;;;6157246;23;20025;-70
2022/09/22 03:05:21;;;;;;;6.70;3.45;;;;;;;;;;6158747;23;20524;-70
2022/09/22 03:07:47;;;;;;;6.90;3.53;;;;;;;;;;6157808;23;20030;-70
2022/09/22 03:10:13;;;;;;;9.55;3.00;;;;;;;;;;6157336;23;20045;-70
2022/09/22 03:12:41;;;;;;;7.35;3.38;;;;;;;;;;6158418;23;20030;-70
2022/09/22 03:15:28;;;;;;;7.28;3.50;;;;;;;;;;6158505;23;20022;-70
2022/09/22 03:17:54;;;;;;;4.60;3.47;;;;;;;;;;6159281;23;20105;-70
2022/09/22 03:20:20;;;;;;;3.65;3.25;;;;;;;;;;6158357;23;20034;-70
2022/09/22 03:22:46;;;;;;;7.10;3.70;;;;;;;;;;6159267;23;20448;-70
2022/09/22 03:25:13;;;;;;;10.20;3.67;;;;;;;;;;6158272;23;21033;-70
2022/09/22 03:27:39;;;;;;;3.72;3.15;;;;;;;;;;6158499;23;20084;-70
2022/09/22 03:30:06;;;;;;;9.32;3.28;;;;;;;;;;6157027;23;20041;-70
2022/09/22 03:32:34;;;;;;;8.50;4.03;;;;;;;;;;6158287;23;20471;-70
2022/09/22 03:35:01;;;;;;;5.50;3.25;;;;;;;;;;6159306;23;20033;-70
2022/09/22 03:37:27;;;;;;;6.85;3.33;;;;;;;;;;6158338;23;20029;-70
2022/09/22 03:39:53;;;;;;;5.72;3.47;;;;;;;;;;6158717;23;20033;-70
2022/09/22 03:42:23;;;;;;;8.15;3.80;;;;;;;;;;6157142;23;20025;-70
2022/09/22 03:44:49;;;;;;;6.30;3.28;;;;;;;;;;6158399;23;20356;-70
2022/09/22 03:47:15;;;;;;;5.13;3.45;;;;;;;;;;6158421;23;20077;-70
2022/09/22 03:49:42;;;;;;;7.10;3.03;;;;;;;;;;6158556;23;20089;-70
2022/09/22 03:52:08;;;;;;;4.13;3.00;;;;;;;;;;6158538;23;20084;-70
2022/09/22 03:54:35;;;;;;;4.43;3.17;;;;;;;;;;6159101;23;20081;-70
2022/09/22 03:57:02;;;;;;;3.70;3.00;;;;;;;;;;6157939;23;20030;-70
2022/09/22 03:59:29;;;;;;;3.70;3.00;;;;;;;;;;6159110;23;20030;-71
2022/09/22 04:01:55;;;;;;;5.50;3.22;;;;;;;;;;6158582;23;20034;-70
2022/09/22 04:04:23;;;;;;;6.22;3.33;;;;;;;;;;6157680;23;20096;-70
2022/09/22 04:06:50;;;;;;;5.55;3.38;;;;;;;;;;6158671;23;20030;-70
2022/09/22 04:09:17;;;;;;;5.07;3.25;;;;;;;;;;6158407;23;20034;-70
2022/09/22 04:11:43;;;;;;;5.35;3.25;;;;;;;;;;6158426;23;20081;-70
2022/09/22 04:14:09;;;;;;;8.50;3.58;;;;;;;;;;6158155;23;20085;-70
2022/09/22 04:16:36;;;;;;;6.07;3.92;;;;;;;;;;6158661;23;20844;-70
2022/09/22 04:19:03;;;;;;;8.45;3.72;;;;;;;;;;6158317;23;20109;-70
2022/09/22 04:21:30;;;;;;;4.72;3.08;;;;;;;;;;6158540;23;20030;-70
2022/09/22 04:23:57;;;;;;;6.38;3.10;;;;;;;;;;6158841;23;20037;-70
2022/09/22 04:26:23;;;;;;;5.10;3.13;;;;;;;;;;6158272;23;20404;-70
2022/09/22 04:28:49;;;;;;;9.40;3.40;;;;;;;;;;6158327;23;20455;-70
2022/09/22 04:31:15;;;;;;;3.60;2.95;;;;;;;;;;6158468;23;20026;-70
2022/09/22 04:33:42;;;;;;;6.30;3.47;;;;;;;;;;6156541;23;20527;-70
2022/09/22 04:36:08;;;;;;;3.92;2.85;;;;;;;;;;6158578;23;20444;-70
2022/09/22 04:38:34;;;;;;;4.45;3.30;;;;;;;;;;6158000;23;20034;-70
2022/09/22 04:41:01;;;;;;;4.85;3.10;;;;;;;;;;6158536;23;20026;-71
2022/09/22 04:43:27;;;;;;;5.82;3.13;;;;;;;;;;6158621;23;20093;-70
2022/09/22 04:45:53;;;;;;;7.05;3.20;;;;;;;;;;6158760;23;20026;-70
2022/09/22 04:48:19;;;;;;;6.22;3.55;;;;;;;;;;6158151;23;20061;-70
2022/09/22 04:50:46;;;;;;;8.30;3.10;;;;;;;;;;6157937;23;20081;-70
2022/09/22 04:53:13;;;;;;;5.18;3.33;;;;;;;;;;6158653;23;20140;-70
2022/09/22 04:55:40;;;;;;;7.93;3.30;;;;;;;;;;6158245;23;20034;-70
2022/09/22 04:58:06;;;;;;;3.40;2.95;;;;;;;;;;6157845;23;20030;-70
2022/09/22 05:00:32;;;;;;;5.53;3.20;;;;;;;;;;6158184;23;20077;-70
2022/09/22 05:03:00;;;;;;;3.88;2.72;;;;;;;;;;6157303;23;20034;-70
2022/09/22 05:05:27;;;;;;;5.10;3.38;;;;;;;;;;6158528;23;20049;-70
2022/09/22 05:07:53;;;;;;;4.70;3.35;;;;;;;;;;6157961;23;20034;-70
2022/09/22 05:10:23;;;;;;;3.45;3.08;;;;;;;;;;6158330;23;20084;-70
2022/09/22 05:12:50;;;;;;;6.72;3.40;;;;;;;;;;6158143;23;20439;-70
2022/09/22 05:15:16;;;;;;;8.50;3.28;;;;;;;;;;6157828;23;20034;-70
2022/09/22 05:17:47;;;;;;;4.20;3.20;;;;;;;;;;6188017;23;20030;-70
2022/09/22 05:20:13;;;;;;;5.55;3.80;;;;;;;;;;6188257;23;20084;-70
2022/09/22 05:22:40;;;;;;;12.05;3.97;;;;;;;;;;6187234;23;20448;-70
2022/09/22 05:25:08;;;;;;;5.18;3.85;;;;;;;;;;6188042;23;20026;-70
2022/09/22 05:27:34;;;;;;;7.05;3.88;;;;;;;;;;6188611;23;20029;-71
2022/09/22 05:30:01;;;;;;;5.63;3.38;;;;;;;;;;6187032;23;20084;-70
2022/09/22 05:32:27;;;;;;;5.70;3.33;;;;;;;;;;6186066;23;20037;-70
2022/09/22 05:34:54;;;;;;;6.03;4.85;;;;;;;;;;6161966;23;20092;-70
2022/09/22 05:37:27;;;;;;;4.65;3.88;;;;;;;;;;6188343;23;20025;-70
2022/09/22 05:39:53;;;;;;;8.38;3.80;;;;;;;;;;6188321;23;20025;-70
2022/09/22 05:42:22;;;;;;;5.13;3.83;;;;;;;;;;6188293;23;20029;-70
2022/09/22 05:44:49;;;;;;;6.90;3.90;;;;;;;;;;6188107;23;20510;-70
2022/09/22 05:47:15;;;;;;;10.35;4.70;;;;;;;;;;6187065;23;20025;-70
2022/09/22 05:49:43;;;;;;;7.85;4.22;;;;;;;;;;6187985;23;20383;-70
2022/09/22 05:52:10;;;;;;;7.70;3.55;;;;;;;;;;6187335;23;20029;-70
2022/09/22 05:54:36;;;;;;;8.27;3.83;;;;;;;;;;6188082;23;20105;-71
2022/09/22 05:57:02;;;;;;;7.05;4.40;;;;;;;;;;6187740;23;20033;-70
2022/09/22 05:59:29;;;;;;;6.57;3.95;;;;;;;;;;6186721;23;20027;-70
2022/09/22 06:01:55;;;;;;;7.45;4.25;;;;;;;;;;6182890;23;20088;-70
2022/09/22 06:04:48;;;;;;;5.88;4.13;;;;;;;;;;6185793;23;20080;-70
2022/09/22 06:07:15;;;;;;;5.57;4.07;;;;;;;;;;6186664;23;20025;-70
2022/09/22 06:09:42;;;;;;;6.75;4.60;;;;;;;;;;6187499;23;20033;-70
2022/09/22 06:12:08;;;;;;;8.80;4.63;;;;;;;;;;6187483;23;20029;-70
2022/09/22 06:14:34;;;;;;;5.93;4.00;;;;;;;;;;6187335;23;20468;-71
2022/09/22 06:17:00;;;;;;;8.02;4.07;;;;;;;;;;6165370;23;20469;-69
2022/09/22 06:19:28;;;;;;;7.32;4.10;;;;;;;;;;6157175;23;20468;-69
2022/09/22 06:21:54;;;;;;;8.70;3.88;;;;;;;;;;6157545;23;20038;-69
2022/09/22 06:24:22;;;;;;;6.10;4.18;;;;;;;;;;6158036;23;20041;-70
2022/09/22 06:26:49;;;;;;;7.55;4.05;;;;;;;;;;6157601;23;20176;-70
2022/09/22 06:29:16;;;;;;;7.57;4.53;;;;;;;;;;6157283;23;20093;-69
2022/09/22 06:31:42;;;;;;;13.65;5.07;;;;;;;;;;6157236;23;20029;-69
2022/09/22 06:34:10;;;;;;;8.00;4.75;;;;;;;;;;6155421;23;20117;-69
2022/09/22 06:36:36;;;;;;;9.75;4.57;;;;;;;;;;6158070;23;20084;-69
2022/09/22 06:39:03;;;;;;;7.10;5.20;;;;;;;;;;6159010;23;20033;-69
2022/09/22 06:41:31;;;;;;;8.93;5.13;;;;;;;;;;6158632;23;20038;-69
2022/09/22 06:43:57;;;;;;;9.77;4.88;;;;;;;;;;6158686;23;20085;-70
2022/09/22 06:46:25;;;;;;;10.75;5.50;;;;;;;;;;6157693;23;20029;-69
2022/09/22 06:48:56;;;;;;;7.70;5.15;;;;;;;;;;6158584;23;20034;-68
2022/09/22 06:51:26;;;;;;;12.40;5.90;;;;;;;;;;6159071;23;20543;-69
2022/09/22 06:53:53;;;;;;;8.05;5.70;;;;;;;;;;6159699;23;20026;-68
2022/09/22 06:56:23;;;;;;;10.95;6.38;;;;;;;;;;6159122;23;20036;-69
2022/09/22 06:58:50;;;;;;;10.05;6.28;;;;;;;;;;6158645;23;20026;-70
2022/09/22 07:01:35;;;;;;;10.70;6.60;;;;;;;;;;6158346;23;20793;-71
2022/09/22 07:04:01;;;;;;;12.15;7.30;;;;;;;;;;6156099;23;20222;-68
2022/09/22 07:06:28;;;;;;;8.73;7.13;;;;;;;;;;6158622;23;20030;-67
2022/09/22 07:08:54;;;;;;;12.80;7.68;;;;;;;;;;6158971;23;20030;-68
2022/09/22 07:11:22;;;;;;;12.43;7.57;;;;;;;;;;6156447;23;20072;-68
2022/09/22 07:13:54;;;;;;;12.75;8.35;;;;;;;;;;6158161;23;20085;-70
2022/09/22 07:16:21;;;;;;;11.18;7.93;;;;;;;;;;6162253;23;20026;-70
2022/09/22 07:18:49;;;;;;;12.98;8.60;;;;;;;;;;6158557;23;20030;-70
2022/09/22 07:21:26;;;;;;;13.48;8.35;;;;;;;;;;6158979;23;20065;-70
2022/09/22 07:23:53;;;;;;;19.02;7.95;;;;;;;;;;6158548;23;20032;-67
2022/09/22 07:26:29;;;;;;;12.35;7.82;;;;;;;;;;6157732;23;20085;-67
2022/09/22 07:28:58;;;;;;;9.15;7.95;;;;;;;;;;6157606;23;20034;-67
2022/09/22 07:31:25;;;;;;;8.82;7.28;;;;;;;;;;6157629;23;20494;-67
2022/09/22 07:33:54;;;;;;;11.45;7.88;;;;;;;;;;6154454;23;20029;-67
2022/09/22 07:36:21;;;;;;;10.90;7.80;;;;;;;;;;6157487;23;20030;-67
2022/09/22 07:38:50;;;;;;;10.63;7.53;;;;;;;;;;6158999;23;20677;-67
2022/09/22 07:41:20;;;;;;;10.73;8.27;;;;;;;;;;6159081;23;20509;-68
2022/09/22 07:43:55;;;;;;;15.38;8.95;;;;;;;;;;6157798;23;20033;-68
2022/09/22 07:46:21;;;;;;;12.40;8.60;;;;;;;;;;6158433;23;20033;-68
2022/09/22 07:48:48;;;;;;;16.65;9.20;;;;;;;;;;6157634;23;20700;-70
2022/09/22 07:51:20;;;;;;;11.82;9.38;;;;;;;;;;6158751;23;20033;-70
2022/09/22 07:53:47;;;;;;;17.67;9.02;;;;;;;;;;6159073;23;20474;-70
2022/09/22 07:56:15;;;;;;;13.32;8.75;;;;;;;;;;6158069;23;20051;-70
2022/09/22 07:58:48;;;;;;;11.65;8.50;;;;;;;;;;6158110;23;20030;-69
2022/09/22 08:01:15;;;;;;;13.40;9.13;;;;;;;;;;6158446;23;20033;-69
2022/09/22 08:03:42;;;;;;;10.40;8.65;;;;;;;;;;6156558;23;20057;-70
2022/09/22 08:06:10;;;;;;;14.70;9.10;;;;;;;;;;6156420;23;20606;-70
2022/09/22 08:08:40;;;;;;;14.20;9.27;;;;;;;;;;6158014;23;20034;-69
2022/09/22 08:11:14;;;;;;;13.75;9.25;;;;;;;;;;6158543;23;20523;-69
2022/09/22 08:13:42;;;;;;;14.13;6.60;;;;;;;;;;6158472;23;20034;-71
2022/09/22 08:16:10;;;;;;;9.40;7.13;;;;;;;;;;6157717;23;20041;-70
2022/09/22 08:18:38;;;;;;;13.48;6.70;;;;;;;;;;6158031;23;20033;-66
2022/09/22 08:21:05;;;;;;;9.80;7.43;;;;;;;;;;6159318;23;20026;-66
2022/09/22 08:23:32;;;;;;;20.92;9.02;;;;;;;;;;6159120;23;20030;-67
2022/09/22 08:26:05;;;;;;;11.70;7.63;;;;;;;;;;6158512;23;20958;-67
2022/09/22 08:28:32;;;;;;;9.15;6.63;;;;;;;;;;6158584;23;20577;-68
2022/09/22 08:30:59;;;;;;;8.90;6.90;;;;;;;;;;6157366;23;20089;-68
2022/09/22 08:33:26;;;;;;;12.15;7.57;;;;;;;;;;6156469;23;20034;-68
2022/09/22 08:35:53;;;;;;;12.00;7.40;;;;;;;;;;6156945;23;20101;-67
2022/09/22 08:38:21;;;;;;;10.52;8.13;;;;;;;;;;6158815;23;20030;-68
2022/09/22 08:40:54;;;;;;;11.85;7.70;;;;;;;;;;6158604;23;20119;-68
2022/09/22 08:43:21;;;;;;;14.18;8.23;;;;;;;;;;6158805;23;20065;-70
2022/09/22 08:45:47;;;;;;;12.48;7.45;;;;;;;;;;6159383;23;20908;-70
2022/09/22 08:53:55;;;;;;;10.60;7.20;;;;;;;;;;6158086;23;20443;-68
2022/09/22 08:56:43;;;;;;;8.82;7.38;;;;;;;;;;6158248;23;20093;-69
2022/09/22 08:59:17;;;;;;;13.85;6.63;;;;;;;;;;6158159;23;20026;-69
2022/09/22 09:01:55;;;;;;;13.52;7.07;;;;;;;;;;6158352;23;20030;-69
2022/09/22 09:04:38;;;;;;;14.02;7.97;;;;;;;;;;6158452;23;20030;-70
2022/09/22 09:07:25;;;;;;;12.95;7.00;;;;;;;;;;6158376;23;20121;-69
2022/09/22 09:09:54;;;;;;;9.07;6.40;;;;;;;;;;6158701;23;20033;-69
2022/09/22 09:12:40;;;;;;;7.70;6.20;;;;;;;;;;6158273;23;20038;-69
2022/09/22 09:15:12;;;;;;;7.22;6.25;;;;;;;;;;6158561;23;20034;-69
2022/09/22 09:17:39;;;;;;;12.23;6.45;;;;;;;;;;6157662;23;20089;-68
2022/09/22 09:20:34;;;;;;;12.68;6.03;;;;;;;;;;6157912;23;20561;-70
2022/09/22 09:23:03;;;;;;;9.32;6.57;;;;;;;;;;6158361;23;20033;-71
2022/09/22 09:25:41;;;;;;;9.27;6.60;;;;;;;;;;6158087;23;20432;-72
2022/09/22 09:28:17;;;;;;;8.55;6.40;;;;;;;;;;6158520;23;20026;-70
2022/09/22 09:30:45;;;;;;;;;;;;;;;;;;6158948;23;20093;-70
2022/09/22 09:33:17;;;;;;;9.00;6.78;;;;;;;;;;6155746;23;44002;-70
2022/09/22 09:35:44;;;;;;;10.00;6.45;;;;;;;;;;6158340;23;20359;-69
2022/09/22 09:38:13;;;;;;;8.50;7.18;;;;;;;;;;6158281;23;20036;-71
2022/09/22 09:40:40;;;;;;;11.55;8.18;;;;;;;;;;6158041;23;20450;-71
2022/09/22 09:43:07;;;;;;;11.75;6.60;;;;;;;;;;6158040;23;20026;-70
2022/09/22 09:45:51;;;;;;;12.98;7.38;;;;;;;;;;6157763;23;20034;-70
2022/09/22 09:48:20;;;;;;;10.05;6.82;;;;;;;;;;6158721;23;20404;-70
2022/09/22 09:50:47;;;;;;;7.70;6.35;;;;;;;;;;6158522;23;20085;-70
2022/09/22 09:53:20;;;;;;;14.95;5.88;;;;;;;;;;6158898;23;20081;-70
2022/09/22 09:55:49;;;;;;;7.72;5.82;;;;;;;;;;6158257;23;20550;-70
2022/09/22 10:01:03;;;;;;;8.38;5.35;;;;;;;;;;6142281;23;20026;-71
2022/09/22 10:03:31;;;;;;;6.20;4.63;;;;;;;;;;6158394;23;20026;-70
2022/09/22 10:06:08;;;;;;;7.25;5.03;;;;;;;;;;6158052;23;20403;-71
2022/09/22 10:08:42;;;;;;;9.98;6.13;;;;;;;;;;6158544;23;20032;-69
2022/09/22 10:11:10;;;;;;;9.32;5.43;;;;;;;;;;6159723;23;20325;-69
2022/09/22 10:13:37;;;;;;;9.38;4.82;;;;;;;;;;6158695;23;20034;-69
2022/09/22 10:16:23;;;;;;;11.90;5.35;;;;;;;;;;6159288;23;20460;-69
2022/09/22 10:18:50;;;;;;;;;;;;;;;;;;6160113;23;20037;-69
2022/09/22 10:21:16;;;;;;;7.55;4.43;;;;;;;;;;6158325;23;44173;-70
2022/09/22 10:23:43;;;;;;;7.15;4.50;;;;;;;;;;6158794;23;20081;-69
2022/09/22 10:26:17;;;;;;;8.45;4.05;;;;;;;;;;6159194;23;20036;-69
2022/09/22 10:28:46;;;;;;;4.03;3.05;;;;;;;;;;6159081;23;20026;-69
2022/09/22 10:31:20;;;;;;;4.47;2.90;;;;;;;;;;6159088;23;20085;-69
2022/09/22 10:33:54;;;;;;;5.55;3.28;;;;;;;;;;6156519;23;20041;-69
2022/09/22 10:36:24;;;;;;;10.13;4.00;;;;;;;;;;6159472;23;20033;-70
2022/09/22 10:38:52;;;;;;;6.25;3.22;;;;;;;;;;6159005;23;20071;-70
2022/09/22 10:41:29;;;;;;;5.13;2.92;;;;;;;;;;6158921;23;20421;-70
2022/09/22 10:43:59;;;;;;;4.97;2.72;;;;;;;;;;6158744;23;20081;-70
2022/09/22 10:46:59;;;;;;;5.32;2.63;;;;;;;;;;6158424;23;20033;-70
2022/09/22 10:49:44;;;;;;;8.48;2.60;;;;;;;;;;6157979;23;20034;-71
2022/09/22 18:00:28;;;;;;;;;;;;;;;;;;5159119;27;20346;-72
2022/09/22 18:02:55;;;;;;;4.53;2.28;;;;;;;;;;5148538;27;46101;-73
2022/09/22 18:05:25;;;;;;;5.72;2.60;;;;;;;;;;5149309;27;20058;-72
2022/09/22 18:07:57;;;;;;;4.63;3.03;;;;;;;;;;5149090;27;20056;-72
2022/09/22 18:10:26;;;;;;;5.05;3.42;;;;;;;;;;5148365;27;20069;-73
2022/09/22 18:12:52;;;;;;;4.45;3.30;;;;;;;;;;5149132;27;20055;-72
2022/09/22 18:15:18;;;;;;;7.70;3.40;;;;;;;;;;5149352;27;20055;-72
2022/09/22 18:17:45;;;;;;;6.03;3.08;;;;;;;;;;5150006;27;20048;-72
2022/09/22 18:20:13;;;;;;;5.70;3.33;;;;;;;;;;5144681;27;20105;-72
2022/09/22 18:22:40;;;;;;;6.13;3.72;;;;;;;;;;5147407;27;20451;-72
2022/09/22 18:25:07;;;;;;;7.22;3.75;;;;;;;;;;5141952;27;20051;-72
2022/09/22 18:27:34;;;;;;;4.68;3.88;;;;;;;;;;5156825;27;20063;-72
2022/09/22 18:30:03;;;;;;;5.75;3.55;;;;;;;;;;5149340;27;20052;-72
2022/09/22 18:32:30;;;;;;;8.90;4.25;;;;;;;;;;5148472;27;20109;-72
2022/09/22 18:34:56;;;;;;;5.10;3.47;;;;;;;;;;5144778;27;20051;-72
2022/09/22 18:37:23;;;;;;;3.90;3.10;;;;;;;;;;5149167;27;20059;-72
2022/09/22 18:39:50;;;;;;;6.32;4.00;;;;;;;;;;5148979;27;20054;-72
2022/09/22 18:42:17;;;;;;;7.32;3.55;;;;;;;;;;5152377;27;20051;-71
2022/09/22 18:44:45;;;;;;;4.05;3.17;;;;;;;;;;5137870;27;20058;-72
2022/09/22 18:47:13;;;;;;;6.07;3.72;;;;;;;;;;5148891;27;20059;-72
2022/09/22 18:49:39;;;;;;;7.68;4.30;;;;;;;;;;5148818;27;20047;-72
2022/09/22 18:52:06;;;;;;;5.03;3.40;;;;;;;;;;5140937;27;20084;-72
2022/09/22 18:54:33;;;;;;;6.28;4.20;;;;;;;;;;5149053;27;20056;-72
2022/09/22 18:57:02;;;;;;;5.80;3.78;;;;;;;;;;5149211;27;20096;-72
2022/09/22 18:59:28;;;;;;;6.43;4.30;;;;;;;;;;5148882;27;20108;-72
2022/09/22 19:01:54;;;;;;;7.72;5.10;;;;;;;;;;5149224;27;20373;-72
2022/09/22 19:04:22;;;;;;;7.40;5.03;;;;;;;;;;5146906;27;20412;-72
2022/09/22 19:09:34;;;;;;;10.95;5.30;;;;;;;;;;5134610;27;20051;-72
2022/09/22 19:12:05;;;;;;;8.52;5.65;;;;;;;;;;5133027;27;20112;-72
2022/09/22 19:14:35;;;;;;;8.50;5.63;;;;;;;;;;5122198;27;21011;-72
2022/09/22 19:17:02;;;;;;;9.23;5.78;;;;;;;;;;5133794;27;20059;-72
2022/09/22 19:19:28;;;;;;;8.48;5.90;;;;;;;;;;5134697;27;20047;-72
2022/09/22 19:21:54;;;;;;;9.52;5.65;;;;;;;;;;5132380;27;20055;-72
2022/09/22 19:24:22;;;;;;;12.70;6.30;;;;;;;;;;5129927;27;20056;-72
2022/09/22 19:26:51;;;;;;;8.73;6.25;;;;;;;;;;5135554;27;20051;-72
2022/09/22 19:29:17;;;;;;;10.38;5.97;;;;;;;;;;5131075;27;20047;-72
2022/09/22 19:31:44;;;;;;;9.07;6.85;;;;;;;;;;5134864;27;20059;-72
2022/09/22 19:34:10;;;;;;;8.50;6.95;;;;;;;;;;5133286;27;20052;-72
2022/09/22 19:36:37;;;;;;;10.05;6.65;;;;;;;;;;5129799;27;20120;-72
2022/09/22 19:39:05;;;;;;;11.57;7.18;;;;;;;;;;5120745;27;20562;-72
2022/09/22 19:41:34;;;;;;;6.97;6.28;;;;;;;;;;5126810;27;20058;-72
2022/09/22 19:44:01;;;;;;;11.60;7.40;;;;;;;;;;5133163;27;20040;-72
2022/09/22 19:46:27;;;;;;;9.85;7.30;;;;;;;;;;5133885;27;20047;-72
2022/09/22 19:48:53;;;;;;;17.20;6.82;;;;;;;;;;5135117;27;20564;-72
2022/09/22 19:51:21;;;;;;;12.02;6.97;;;;;;;;;;5132351;27;20051;-71
2022/09/22 19:53:48;;;;;;;11.98;7.55;;;;;;;;;;5133782;27;20055;-72
2022/09/22 19:56:19;;;;;;;8.23;6.55;;;;;;;;;;5133652;27;20055;-72
2022/09/22 19:58:46;;;;;;;10.65;7.38;;;;;;;;;;5130492;27;20071;-72
2022/09/22 20:01:27;;;;;;;9.90;6.70;;;;;;;;;;5133814;27;20055;-72
2022/09/22 20:03:55;;;;;;;15.68;9.98;;;;;;;;;;5129813;27;20051;-72
2022/09/22 20:06:22;;;;;;;11.20;7.63;;;;;;;;;;5133797;27;20105;-72
2022/09/22 20:08:49;;;;;;;10.60;7.10;;;;;;;;;;5133734;27;20109;-72
2022/09/22 20:11:21;;;;;;;12.38;7.65;;;;;;;;;;5124312;27;20105;-71
2022/09/22 20:16:37;;;;;;;9.53;7.53;;;;;;;;;;5136368;27;20438;-68
2022/09/22 20:19:03;;;;;;;9.40;7.28;;;;;;;;;;5134078;27;20260;-70
2022/09/22 20:21:32;;;;;;;13.75;7.47;;;;;;;;;;5133839;27;20085;-70
2022/09/22 20:23:59;;;;;;;11.05;7.32;;;;;;;;;;5133004;27;20101;-71
2022/09/22 20:26:26;;;;;;;9.27;6.97;;;;;;;;;;5136056;27;20055;-71
2022/09/22 20:28:55;;;;;;;10.13;6.30;;;;;;;;;;5134650;27;20508;-71
2022/09/22 20:31:22;;;;;;;10.48;6.78;;;;;;;;;;5132855;27;20052;-71
2022/09/22 20:33:49;;;;;;;9.18;6.70;;;;;;;;;;5128744;27;20083;-71
2022/09/22 20:36:15;;;;;;;10.00;6.18;;;;;;;;;;5132649;27;20048;-71
2022/09/22 20:38:41;;;;;;;9.07;6.68;;;;;;;;;;5132142;27;20052;-71
2022/09/22 20:41:13;;;;;;;9.00;6.38;;;;;;;;;;5133125;27;20055;-71
2022/09/22 20:43:39;;;;;;;9.98;6.85;;;;;;;;;;5124497;27;20565;-71
2022/09/22 20:46:05;;;;;;;9.25;6.35;;;;;;;;;;5130773;27;20109;-71
2022/09/22 20:48:32;;;;;;;9.10;6.80;;;;;;;;;;5133395;27;20061;-71
2022/09/22 20:50:58;;;;;;;7.38;6.60;;;;;;;;;;5133558;27;20044;-71
2022/09/22 20:53:30;;;;;;;11.65;6.80;;;;;;;;;;5133850;27;20497;-71
2022/09/22 20:55:58;;;;;;;10.70;7.25;;;;;;;;;;5142956;27;20059;-71
2022/09/22 20:58:25;;;;;;;11.05;7.25;;;;;;;;;;5134105;27;20584;-71
2022/09/22 21:00:53;;;;;;;7.70;6.40;;;;;;;;;;5120328;27;20537;-71
2022/09/22 21:03:19;;;;;;;10.57;7.03;;;;;;;;;;5124726;27;20055;-71
2022/09/22 21:05:45;;;;;;;9.77;7.90;;;;;;;;;;5131910;27;20058;-71
2022/09/22 21:10:56;;;;;;;8.35;7.28;;;;;;;;;;5132831;27;20078;-71
2022/09/22 21:13:22;;;;;;;13.20;8.00;;;;;;;;;;5133156;27;20105;-71
2022/09/22 21:15:59;;;;;;;10.75;7.82;;;;;;;;;;5132803;27;20055;-71
2022/09/22 21:18:27;;;;;;;11.20;8.25;;;;;;;;;;5132805;27;20139;-71
2022/09/22 21:20:56;;;;;;;11.63;8.50;;;;;;;;;;5132426;27;20055;-71
2022/09/22 21:23:22;;;;;;;12.18;8.63;;;;;;;;;;5132434;27;20047;-71
2022/09/22 21:25:59;;;;;;;10.52;8.95;;;;;;;;;;5132312;27;20196;-71
2022/09/22 21:28:26;;;;;;;12.10;9.20;;;;;;;;;;5132751;27;20056;-71
2022/09/22 21:30:59;;;;;;;12.88;9.07;;;;;;;;;;5131515;27;20166;-71
2022/09/22 21:33:27;;;;;;;17.73;9.75;;;;;;;;;;5135417;27;20055;-71
2022/09/22 21:36:10;;;;;;;13.73;9.75;;;;;;;;;;5132196;27;20128;-71
2022/09/22 21:38:36;;;;;;;20.20;9.68;;;;;;;;;;5134550;27;20043;-71
2022/09/22 21:41:04;;;;;;;15.77;9.25;;;;;;;;;;5137338;27;20048;-71
2022/09/22 21:43:30;;;;;;;17.90;9.60;;;;;;;;;;5132188;27;20093;-71
2022/09/22 21:46:07;;;;;;;16.73;8.88;;;;;;;;;;5132454;27;20051;-71
2022/09/22 21:48:37;;;;;;;12.23;8.48;;;;;;;;;;5132424;27;20912;-71
2022/09/22 21:51:04;;;;;;;14.38;9.30;;;;;;;;;;5131702;27;20448;-71
2022/09/22 21:53:31;;;;;;;17.40;10.20;;;;;;;;;;5132612;27;20562;-71
2022/09/22 21:56:09;;;;;;;15.20;9.10;;;;;;;;;;5132757;27;20055;-71
2022/09/22 21:58:37;;;;;;;13.65;9.13;;;;;;;;;;5141336;27;20063;-71
2022/09/22 22:01:04;;;;;;;19.38;9.63;;;;;;;;;;5130955;27;20112;-71
2022/09/22 22:03:31;;;;;;;13.90;9.02;;;;;;;;;;5128654;27;20052;-71
2022/09/22 22:05:58;;;;;;;14.52;9.27;;;;;;;;;;5129767;27;20062;-71
2022/09/22 22:08:25;;;;;;;17.33;8.38;;;;;;;;;;5129901;27;20594;-71
2022/09/22 22:11:03;;;;;;;9.57;8.25;;;;;;;;;;5137540;27;20901;-71
2022/09/22 22:13:30;;;;;;;12.77;8.45;;;;;;;;;;5140339;27;20063;-71
2022/09/22 22:15:57;;;;;;;11.85;8.75;;;;;;;;;;5130890;27;20051;-70
2022/09/22 22:18:24;;;;;;;14.45;10.10;;;;;;;;;;5130246;27;20052;-71